createdAt,value
2018-03-21T00:01:04.897Z,3.65
2018-03-21T00:03:32.487Z,3.05
2018-03-21T00:06:00.093Z,2.97
2018-03-21T00:08:28.126Z,3.10
2018-03-21T00:10:55.736Z,2.67
2018-03-21T00:13:23.395Z,2.53
2018-03-21T00:15:51.028Z,4.25
2018-03-21T00:18:18.606Z,2.50
2018-03-21T00:20:46.220Z,3.37
2018-03-21T00:23:13.984Z,2.55
2018-03-21T00:25:41.662Z,2.87
2018-03-21T00:28:09.493Z,2.50
2018-03-21T00:30:37.110Z,1.80
2018-03-21T00:33:04.809Z,2.65
2018-03-21T00:35:32.365Z,2.75
2018-03-21T00:37:59.953Z,2.92
2018-03-21T00:40:27.611Z,3.50
2018-03-21T00:42:55.513Z,3.25
2018-03-21T00:45:23.314Z,3.80
2018-03-21T00:47:51.112Z,3.90
2018-03-21T00:50:18.789Z,3.95
2018-03-21T00:52:46.406Z,4.37
2018-03-21T00:55:14.021Z,4.03
2018-03-21T00:57:42.661Z,4.50
2018-03-21T01:00:10.668Z,4.72
2018-03-21T01:02:38.838Z,5.15
2018-03-21T01:05:06.558Z,4.45
2018-03-21T01:07:34.251Z,4.32
2018-03-21T01:10:02.415Z,4.72
2018-03-21T01:12:30.152Z,4.55
2018-03-21T01:14:57.981Z,4.25
2018-03-21T01:17:25.836Z,4.20
2018-03-21T01:19:53.535Z,4.72
2018-03-21T01:22:21.225Z,4.35
2018-03-21T01:24:48.936Z,5.28
2018-03-21T01:27:16.654Z,5.65
2018-03-21T01:29:44.563Z,7.40
2018-03-21T01:32:12.340Z,6.00
2018-03-21T01:34:40.124Z,5.57
2018-03-21T01:37:08.177Z,5.50
2018-03-21T01:39:35.838Z,6.37
2018-03-21T01:42:03.503Z,4.80
2018-03-21T01:44:31.117Z,6.30
2018-03-21T01:46:58.953Z,5.65
2018-03-21T01:49:26.898Z,5.75
2018-03-21T01:51:54.718Z,4.95
2018-03-21T01:54:22.518Z,5.53
2018-03-21T01:56:50.190Z,4.55
2018-03-21T01:59:18.113Z,6.15
2018-03-21T02:01:45.695Z,5.65
2018-03-21T02:04:13.287Z,4.68
2018-03-21T02:06:41.587Z,4.95
2018-03-21T02:09:09.381Z,5.50
2018-03-21T02:11:37.196Z,5.62
2018-03-21T02:14:04.863Z,4.40
2018-03-21T02:16:32.881Z,5.45
2018-03-21T02:19:00.624Z,4.60
2018-03-21T02:21:28.209Z,5.78
2018-03-21T02:23:55.881Z,5.00
2018-03-21T02:26:23.906Z,5.80
2018-03-21T02:28:51.651Z,4.90
2018-03-21T02:31:19.988Z,5.62
2018-03-21T02:33:47.828Z,5.32
2018-03-21T02:36:15.455Z,5.30
2018-03-21T02:38:43.093Z,5.00
2018-03-21T02:41:11.143Z,5.55
2018-03-21T02:43:38.829Z,5.45
2018-03-21T02:46:06.408Z,5.85
2018-03-21T02:48:34.399Z,6.18
2018-03-21T02:51:02.461Z,5.60
2018-03-21T02:53:30.594Z,5.87
2018-03-21T02:55:58.663Z,7.30
2018-03-21T02:58:26.578Z,6.53
2018-03-21T03:00:54.393Z,7.50
2018-03-21T03:03:22.111Z,6.00
2018-03-21T03:05:49.681Z,7.15
2018-03-21T03:08:17.391Z,5.20
2018-03-21T03:10:45.036Z,5.47
2018-03-21T03:13:12.602Z,6.93
2018-03-21T03:15:40.437Z,6.15
2018-03-21T03:18:08.105Z,5.50
2018-03-21T03:20:35.896Z,5.75
2018-03-21T03:23:03.852Z,6.10
2018-03-21T03:25:31.676Z,5.10
2018-03-21T03:27:59.251Z,5.60
2018-03-21T03:30:26.874Z,5.75
2018-03-21T03:32:54.499Z,5.65
2018-03-21T03:35:22.180Z,6.55
2018-03-21T03:37:49.846Z,4.72
2018-03-21T03:40:17.448Z,6.25
2018-03-21T03:42:45.083Z,4.80
2018-03-21T03:45:12.705Z,5.60
2018-03-21T03:47:40.575Z,5.22
2018-03-21T03:50:08.658Z,6.72
2018-03-21T03:52:36.223Z,6.20
2018-03-21T03:55:04.073Z,5.97
2018-03-21T03:57:31.658Z,5.57
2018-03-21T03:59:59.300Z,6.45
2018-03-21T04:02:26.890Z,6.47
2018-03-21T04:04:54.731Z,5.68
2018-03-21T04:07:22.333Z,4.60
2018-03-21T04:09:49.921Z,5.12
2018-03-21T04:12:17.549Z,5.25
2018-03-21T04:14:45.163Z,4.95
2018-03-21T04:17:13.251Z,4.65
2018-03-21T04:19:40.912Z,5.68
2018-03-21T04:22:08.577Z,5.10
2018-03-21T04:24:36.269Z,4.95
2018-03-21T04:27:03.952Z,5.15
2018-03-21T04:29:31.624Z,5.20
2018-03-21T04:31:59.200Z,5.20
2018-03-21T04:34:26.957Z,5.43
2018-03-21T04:36:54.515Z,6.93
2018-03-21T04:39:22.135Z,5.12
2018-03-21T04:41:49.854Z,4.40
2018-03-21T04:44:17.533Z,5.60
2018-03-21T04:46:45.139Z,5.28
2018-03-21T04:49:12.861Z,6.53
2018-03-21T04:51:40.517Z,6.22
2018-03-21T04:54:08.385Z,5.75
2018-03-21T04:56:36.052Z,4.47
2018-03-21T04:59:03.716Z,6.07
2018-03-21T05:01:31.356Z,6.40
2018-03-21T05:03:58.956Z,6.00
2018-03-21T05:06:26.578Z,6.15
2018-03-21T05:08:54.431Z,5.97
2018-03-21T05:11:22.159Z,5.18
2018-03-21T05:13:50.400Z,5.28
2018-03-21T05:16:18.004Z,5.47
2018-03-21T05:18:45.725Z,5.57
2018-03-21T05:21:13.597Z,5.12
2018-03-21T05:23:41.171Z,5.62
2018-03-21T05:26:08.832Z,5.50
2018-03-21T05:28:36.425Z,4.30
2018-03-21T05:31:04.075Z,5.15
2018-03-21T05:33:31.682Z,3.60
2018-03-21T05:35:59.567Z,6.53
2018-03-21T05:38:27.641Z,4.90
2018-03-21T05:40:55.234Z,4.57
2018-03-21T05:43:22.852Z,5.35
2018-03-21T05:45:50.474Z,3.90
2018-03-21T05:48:18.180Z,6.00
2018-03-21T05:50:45.746Z,5.35
2018-03-21T05:53:13.420Z,3.90
2018-03-21T05:55:41.066Z,4.65
2018-03-21T05:58:08.674Z,5.35
2018-03-21T06:00:36.272Z,5.35
2018-03-21T06:03:03.918Z,5.65
2018-03-21T06:05:31.545Z,5.00
2018-03-21T06:07:59.202Z,5.30
2018-03-21T06:10:26.809Z,5.10
2018-03-21T06:13:00.285Z,5.75
2018-03-21T06:15:28.089Z,5.62
2018-03-21T06:17:55.729Z,4.47
2018-03-21T06:20:23.431Z,5.07
2018-03-21T06:22:51.240Z,4.53
2018-03-21T06:25:18.893Z,4.30
2018-03-21T06:27:46.636Z,4.43
2018-03-21T06:30:14.613Z,4.57
2018-03-21T06:32:42.252Z,5.18
2018-03-21T06:35:09.915Z,4.57
2018-03-21T06:37:37.499Z,3.90
2018-03-21T06:40:05.116Z,4.50
2018-03-21T06:42:32.690Z,4.53
2018-03-21T06:45:00.274Z,4.03
2018-03-21T06:47:27.914Z,4.80
2018-03-21T06:49:55.501Z,5.15
2018-03-21T06:52:23.295Z,5.47
2018-03-21T06:54:50.935Z,4.85
2018-03-21T06:57:18.881Z,4.20
2018-03-21T06:59:46.548Z,4.78
2018-03-21T07:02:14.265Z,3.37
2018-03-21T07:04:41.976Z,3.85
2018-03-21T07:07:09.666Z,4.32
2018-03-21T07:09:37.599Z,3.70
2018-03-21T07:12:05.176Z,3.97
2018-03-21T07:14:44.817Z,3.58
2018-03-21T07:17:12.797Z,4.37
2018-03-21T07:19:40.477Z,3.75
2018-03-21T07:22:08.073Z,4.47
2018-03-21T07:24:35.703Z,5.40
2018-03-21T07:27:03.371Z,3.28
2018-03-21T07:29:31.021Z,4.03
2018-03-21T07:31:58.864Z,4.25
2018-03-21T07:34:26.435Z,3.90
2018-03-21T07:36:54.041Z,4.75
2018-03-21T07:39:21.737Z,4.03
2018-03-21T07:41:49.312Z,4.62
2018-03-21T07:44:16.893Z,4.28
2018-03-21T07:46:44.539Z,4.47
2018-03-21T07:49:12.397Z,4.03
2018-03-21T07:51:39.967Z,5.30
2018-03-21T07:54:07.588Z,4.32
2018-03-21T07:56:35.199Z,3.70
2018-03-21T07:59:02.894Z,4.28
2018-03-21T08:01:30.530Z,3.78
2018-03-21T08:03:58.174Z,3.85
2018-03-21T08:06:25.810Z,3.50
2018-03-21T08:08:53.381Z,3.53
2018-03-21T08:11:20.973Z,4.10
2018-03-21T08:13:48.604Z,9.27
2018-03-21T08:16:16.521Z,4.20
2018-03-21T08:18:44.141Z,5.05
2018-03-21T08:21:11.847Z,4.95
2018-03-21T08:23:39.714Z,3.42
2018-03-21T08:26:07.305Z,4.30
2018-03-21T08:28:34.941Z,4.70
2018-03-21T08:31:02.654Z,4.68
2018-03-21T08:33:30.227Z,4.12
2018-03-21T08:35:57.897Z,4.53
2018-03-21T08:38:25.577Z,3.70
2018-03-21T08:40:53.213Z,4.95
2018-03-21T08:43:20.811Z,4.37
2018-03-21T08:45:48.387Z,4.32
2018-03-21T08:48:16.005Z,3.80
2018-03-21T08:50:43.593Z,5.00
2018-03-21T08:53:11.497Z,8.20
2018-03-21T08:55:39.125Z,5.75
2018-03-21T08:58:07.033Z,5.65
2018-03-21T09:00:34.623Z,4.68
2018-03-21T09:03:02.272Z,4.45
2018-03-21T09:05:29.935Z,5.22
2018-03-21T09:07:57.557Z,5.75
2018-03-21T09:10:25.145Z,5.35
2018-03-21T09:12:52.781Z,5.03
2018-03-21T09:15:20.336Z,5.20
2018-03-21T09:17:47.936Z,5.35
2018-03-21T09:20:15.510Z,8.13
2018-03-21T09:22:43.361Z,5.87
2018-03-21T09:25:10.940Z,4.30
2018-03-21T09:27:38.515Z,5.18
2018-03-21T09:30:06.417Z,5.87
2018-03-21T09:32:34.245Z,5.53
2018-03-21T09:35:01.906Z,5.75
2018-03-21T09:37:29.817Z,4.40
2018-03-21T09:39:57.668Z,4.95
2018-03-21T09:42:25.269Z,4.70
2018-03-21T09:44:52.909Z,4.90
2018-03-21T09:47:20.526Z,7.03
2018-03-21T09:49:48.479Z,4.87
2018-03-21T09:52:16.138Z,4.47
2018-03-21T09:54:44.212Z,5.47
2018-03-21T09:57:12.059Z,5.00
2018-03-21T09:59:39.674Z,5.47
2018-03-21T10:02:07.241Z,9.37
2018-03-21T10:04:34.850Z,5.80
2018-03-21T10:07:02.664Z,5.20
2018-03-21T10:09:30.208Z,5.17
2018-03-21T10:11:57.870Z,5.93
2018-03-21T10:14:25.434Z,4.13
2018-03-21T10:16:53.143Z,4.53
2018-03-21T10:19:21.002Z,5.50
2018-03-21T10:21:48.569Z,5.90
2018-03-21T10:24:16.163Z,5.70
2018-03-21T10:26:43.770Z,5.40
2018-03-21T10:29:11.374Z,6.70
2018-03-21T10:31:38.983Z,7.60
2018-03-21T10:34:06.623Z,6.70
2018-03-21T10:36:34.257Z,8.27
2018-03-21T10:39:01.943Z,5.63
2018-03-21T10:41:29.537Z,4.57
2018-03-21T10:43:57.248Z,4.70
2018-03-21T10:46:24.829Z,3.90
2018-03-21T10:48:52.478Z,4.10
2018-03-21T10:51:20.128Z,4.53
2018-03-21T10:53:47.772Z,3.93
2018-03-21T10:56:15.460Z,4.43
2018-03-21T10:58:43.311Z,4.50
2018-03-21T11:01:16.424Z,4.20
2018-03-21T11:03:49.681Z,4.00
2018-03-21T11:06:17.510Z,3.53
2018-03-21T11:08:45.227Z,3.67
2018-03-21T11:11:12.851Z,3.60
2018-03-21T11:13:40.405Z,3.30
2018-03-21T11:16:08.006Z,4.20
2018-03-21T11:18:35.589Z,3.33
2018-03-21T11:21:03.624Z,3.87
2018-03-21T11:23:31.191Z,4.00
2018-03-21T11:25:58.776Z,4.00
2018-03-21T11:28:26.618Z,4.37
2018-03-21T11:30:54.278Z,4.60
2018-03-21T11:33:21.859Z,5.07
2018-03-21T11:35:49.559Z,3.90
2018-03-21T11:38:17.190Z,4.33
2018-03-21T11:40:44.774Z,3.53
2018-03-21T11:43:12.397Z,3.90
2018-03-21T11:45:40.029Z,4.00
2018-03-21T11:48:08.392Z,3.47
2018-03-21T11:50:35.962Z,2.93
2018-03-21T11:53:03.723Z,3.10
2018-03-21T11:55:31.452Z,3.47
2018-03-21T11:57:59.029Z,2.90
2018-03-21T12:00:28.642Z,3.13
2018-03-21T12:02:56.292Z,3.40
2018-03-21T12:05:24.122Z,3.17
2018-03-21T12:07:51.697Z,2.93
2018-03-21T12:10:19.577Z,3.10
2018-03-21T12:12:48.331Z,2.90
2018-03-21T12:15:15.884Z,2.80
2018-03-21T12:17:43.545Z,3.10
2018-03-21T12:20:11.177Z,2.53
2018-03-21T12:22:38.781Z,4.00
2018-03-21T12:25:06.647Z,2.70
2018-03-21T12:27:34.267Z,2.30
2018-03-21T12:30:01.873Z,3.53
2018-03-21T12:32:29.505Z,3.43
2018-03-21T12:34:57.111Z,3.00
2018-03-21T12:37:24.720Z,3.57
2018-03-21T12:39:52.425Z,3.33
2018-03-21T12:42:20.382Z,2.60
2018-03-21T12:44:47.994Z,2.30
2018-03-21T12:47:15.585Z,3.07
2018-03-21T12:49:43.276Z,1.90
2018-03-21T12:52:10.920Z,2.10
2018-03-21T12:54:38.545Z,1.70
2018-03-21T12:57:06.135Z,1.90
2018-03-21T12:59:33.754Z,3.03
2018-03-21T13:02:01.394Z,1.63
2018-03-21T13:04:28.947Z,2.27
2018-03-21T13:06:56.569Z,1.40
2018-03-21T13:09:24.152Z,2.43
2018-03-21T13:11:51.953Z,1.80
2018-03-21T13:14:19.604Z,1.57
2018-03-21T13:16:47.215Z,1.80
2018-03-21T13:19:14.830Z,2.30
2018-03-21T13:21:42.772Z,1.97
2018-03-21T13:24:10.466Z,2.70
2018-03-21T13:26:38.083Z,2.23
2018-03-21T13:29:05.655Z,2.53
2018-03-21T13:31:33.350Z,3.47
2018-03-21T13:34:00.981Z,3.13
2018-03-21T13:36:28.783Z,3.00
2018-03-21T13:38:56.361Z,2.30
2018-03-21T13:41:24.015Z,1.70
2018-03-21T13:43:51.592Z,2.07
2018-03-21T13:46:19.225Z,1.93
2018-03-21T13:48:46.882Z,1.57
2018-03-21T13:51:14.773Z,1.50
2018-03-21T13:53:42.359Z,1.27
2018-03-21T13:56:10.037Z,1.30
2018-03-21T13:58:37.632Z,1.20
2018-03-21T14:01:05.370Z,0.70
2018-03-21T14:03:32.958Z,1.30
2018-03-21T14:06:00.597Z,1.90
2018-03-21T14:08:28.257Z,1.30
2018-03-21T14:10:56.290Z,1.17
2018-03-21T14:13:23.935Z,1.10
2018-03-21T14:15:51.488Z,0.90
2018-03-21T14:18:19.056Z,1.43
2018-03-21T14:20:46.678Z,1.03
2018-03-21T14:23:14.245Z,1.17
2018-03-21T14:25:41.821Z,1.17
2018-03-21T14:28:09.532Z,1.30
2018-03-21T14:30:37.109Z,1.33
2018-03-21T14:33:04.660Z,1.27
2018-03-21T14:35:32.273Z,1.47
2018-03-21T14:37:59.865Z,2.20
2018-03-21T14:40:28.062Z,2.10
2018-03-21T14:42:55.932Z,2.20
2018-03-21T14:45:23.675Z,2.10
2018-03-21T14:47:51.286Z,1.90
2018-03-21T14:50:18.865Z,2.33
2018-03-21T14:52:46.467Z,1.60
2018-03-21T14:55:14.044Z,1.87
2018-03-21T14:57:41.652Z,1.43
2018-03-21T15:00:09.445Z,2.03
2018-03-21T15:02:37.048Z,1.87
2018-03-21T15:05:04.605Z,2.17
2018-03-21T15:07:32.278Z,1.73
2018-03-21T15:09:59.932Z,1.53
2018-03-21T15:12:34.453Z,1.73
2018-03-21T15:15:02.108Z,2.53
2018-03-21T15:17:29.682Z,2.03
2018-03-21T15:19:57.637Z,2.50
2018-03-21T15:22:25.275Z,3.10
2018-03-21T15:24:52.834Z,2.10
2018-03-21T15:27:20.577Z,2.83
2018-03-21T15:29:48.325Z,1.70
2018-03-21T15:32:18.137Z,2.10
2018-03-21T15:34:47.423Z,1.70
2018-03-21T15:37:16.549Z,1.97
2018-03-21T15:39:45.606Z,1.77
2018-03-21T15:42:14.113Z,1.23
2018-03-21T15:44:42.885Z,1.40
2018-03-21T15:47:12.604Z,1.13
2018-03-21T15:49:41.797Z,1.10
2018-03-21T15:52:12.217Z,1.57
2018-03-21T15:54:39.930Z,1.03
2018-03-21T15:57:07.497Z,1.40
2018-03-21T15:59:35.116Z,1.93
2018-03-21T16:02:02.767Z,1.37
2018-03-21T16:04:30.427Z,1.63
2018-03-21T16:06:58.000Z,1.40
2018-03-21T16:09:25.663Z,1.43
2018-03-21T16:11:53.338Z,1.87
2018-03-21T16:14:21.194Z,1.47
2018-03-21T16:16:48.784Z,0.97
2018-03-21T16:19:16.460Z,1.23
2018-03-21T16:21:44.116Z,1.47
2018-03-21T16:24:11.688Z,1.43
2018-03-21T16:26:39.298Z,1.30
2018-03-21T16:29:06.960Z,1.40
2018-03-21T16:31:34.506Z,1.30
2018-03-21T16:34:02.144Z,2.00
2018-03-21T16:36:29.831Z,1.20
2018-03-21T16:38:57.384Z,1.37
2018-03-21T16:41:25.049Z,1.13
2018-03-21T16:43:52.627Z,1.70
2018-03-21T16:46:20.383Z,1.40
2018-03-21T16:48:48.060Z,1.20
2018-03-21T16:51:15.720Z,1.53
2018-03-21T16:53:43.378Z,2.53
2018-03-21T16:56:11.344Z,1.33
2018-03-21T16:58:39.018Z,1.43
2018-03-21T17:01:06.674Z,1.60
2018-03-21T17:03:34.309Z,1.33
2018-03-21T17:06:02.114Z,1.73
2018-03-21T17:08:29.688Z,1.00
2018-03-21T17:10:57.296Z,2.30
2018-03-21T17:13:24.905Z,1.97
2018-03-21T17:15:52.819Z,1.50
2018-03-21T17:18:20.455Z,1.93
2018-03-21T17:20:48.033Z,1.70
2018-03-21T17:23:15.594Z,2.00
2018-03-21T17:25:43.238Z,1.60
2018-03-21T17:28:10.798Z,1.77
2018-03-21T17:30:38.692Z,1.53
2018-03-21T17:33:06.298Z,1.60
2018-03-21T17:35:33.869Z,1.40
2018-03-21T17:38:01.532Z,1.53
2018-03-21T17:40:29.109Z,1.43
2018-03-21T17:42:56.732Z,1.33
2018-03-21T17:45:24.298Z,1.30
2018-03-21T17:47:51.938Z,1.70
2018-03-21T17:50:19.632Z,1.60
2018-03-21T17:52:47.542Z,1.63
2018-03-21T17:55:15.133Z,1.33
2018-03-21T17:57:42.771Z,1.43
2018-03-21T18:00:10.476Z,1.83
2018-03-21T18:02:38.409Z,1.37
2018-03-21T18:05:05.997Z,1.50
2018-03-21T18:07:33.619Z,1.47
2018-03-21T18:10:01.229Z,1.40
2018-03-21T18:12:28.786Z,1.50
2018-03-21T18:14:56.363Z,1.80
2018-03-21T18:17:23.938Z,1.60
2018-03-21T18:19:51.635Z,1.40
2018-03-21T18:22:19.209Z,1.37
2018-03-21T18:24:47.058Z,1.97
2018-03-21T18:27:14.919Z,1.43
2018-03-21T18:29:42.552Z,1.47
2018-03-21T18:32:10.163Z,2.00
2018-03-21T18:34:37.828Z,1.87
2018-03-21T18:37:05.414Z,1.37
2018-03-21T18:39:32.975Z,1.67
2018-03-21T18:42:00.650Z,2.10
2018-03-21T18:44:28.202Z,2.37
2018-03-21T18:46:55.777Z,2.07
2018-03-21T18:49:23.772Z,2.07
2018-03-21T18:51:51.343Z,2.83
2018-03-21T18:54:23.617Z,2.67
2018-03-21T18:56:51.304Z,2.33
2018-03-21T18:59:18.831Z,2.10
2018-03-21T19:01:46.430Z,1.80
2018-03-21T19:04:14.251Z,1.60
2018-03-21T19:06:41.831Z,2.20
2018-03-21T19:09:09.437Z,1.73
2018-03-21T19:11:37.078Z,1.70
2018-03-21T19:14:04.680Z,3.90
2018-03-21T19:16:32.261Z,2.30
2018-03-21T19:18:59.905Z,2.20
2018-03-21T19:21:27.492Z,2.17
2018-03-21T19:23:55.041Z,1.80
2018-03-21T19:26:22.652Z,2.60
2018-03-21T19:28:50.217Z,2.13
2018-03-21T19:31:18.210Z,2.00
2018-03-21T19:33:45.801Z,2.00
2018-03-21T19:36:13.405Z,3.07
2018-03-21T19:38:41.113Z,2.90
2018-03-21T19:41:09.015Z,2.60
2018-03-21T19:43:36.812Z,2.70
2018-03-21T19:46:04.418Z,3.13
2018-03-21T19:48:32.055Z,2.60
2018-03-21T19:51:00.286Z,2.83
2018-03-21T19:53:27.966Z,2.93
2018-03-21T19:55:55.751Z,3.00
2018-03-21T19:58:23.485Z,2.27
2018-03-21T20:00:51.090Z,3.37
2018-03-21T20:03:18.652Z,3.57
2018-03-21T20:05:46.414Z,3.33
2018-03-21T20:08:14.179Z,3.07
2018-03-21T20:10:41.763Z,2.83
2018-03-21T20:13:09.448Z,2.97
2018-03-21T20:15:37.096Z,3.40
2018-03-21T20:18:04.685Z,2.83
2018-03-21T20:20:32.271Z,3.00
2018-03-21T20:23:00.006Z,3.70
2018-03-21T20:25:27.595Z,3.50
2018-03-21T20:27:55.449Z,2.50
2018-03-21T20:30:23.172Z,3.50
2018-03-21T20:32:50.889Z,3.20
2018-03-21T20:35:18.488Z,4.43
2018-03-21T20:37:46.148Z,3.80
2018-03-21T20:40:13.866Z,5.10
2018-03-21T20:42:41.484Z,4.23
2018-03-21T20:45:09.214Z,4.00
2018-03-21T20:47:36.878Z,4.10
2018-03-21T20:50:04.464Z,4.27
2018-03-21T20:52:32.126Z,5.90
2018-03-21T20:54:59.779Z,5.20
2018-03-21T20:57:27.382Z,6.57
2018-03-21T20:59:55.051Z,6.33
2018-03-21T21:02:22.672Z,7.70
2018-03-21T21:04:50.488Z,7.30
2018-03-21T21:07:18.308Z,8.40
2018-03-21T21:09:45.951Z,7.10
2018-03-21T21:12:13.536Z,8.80
2018-03-21T21:14:41.488Z,9.40
2018-03-21T21:17:09.186Z,8.50
2018-03-21T21:19:36.758Z,9.40
2018-03-21T21:22:04.389Z,9.23
2018-03-21T21:24:32.027Z,8.20
2018-03-21T21:26:59.642Z,8.47
2018-03-21T21:29:27.504Z,9.53
2018-03-21T21:31:55.284Z,8.00
2018-03-21T21:34:22.926Z,8.03
2018-03-21T21:36:50.726Z,7.23
2018-03-21T21:39:18.361Z,7.77
2018-03-21T21:41:46.428Z,8.33
2018-03-21T21:44:14.363Z,7.57
2018-03-21T21:46:42.180Z,8.93
2018-03-21T21:49:10.319Z,7.83
2018-03-21T21:51:37.942Z,6.80
2018-03-21T21:54:05.788Z,7.57
2018-03-21T21:56:33.615Z,8.30
2018-03-21T21:59:01.184Z,8.43
2018-03-21T22:01:28.775Z,9.63
2018-03-21T22:03:56.417Z,8.03
2018-03-21T22:06:24.068Z,7.90
2018-03-21T22:08:51.812Z,8.37
2018-03-21T22:11:19.551Z,7.90
2018-03-21T22:13:47.551Z,8.67
2018-03-21T22:16:15.162Z,9.00
2018-03-21T22:18:42.951Z,8.07
2018-03-21T22:21:10.836Z,9.10
2018-03-21T22:23:38.455Z,9.47
2018-03-21T22:26:06.149Z,9.30
2018-03-21T22:28:33.820Z,9.37
2018-03-21T22:31:01.408Z,8.70
2018-03-21T22:33:29.173Z,9.53
2018-03-21T22:35:56.734Z,8.50
2018-03-21T22:38:24.312Z,9.50
2018-03-21T22:40:51.970Z,9.77
2018-03-21T22:43:19.556Z,9.60
2018-03-21T22:45:47.193Z,10.97
2018-03-21T22:48:14.842Z,10.00
2018-03-21T22:50:42.500Z,10.80
2018-03-21T22:53:10.076Z,12.53
2018-03-21T22:55:37.924Z,10.77
2018-03-21T22:58:05.491Z,10.90
2018-03-21T23:00:33.127Z,11.03
2018-03-21T23:03:01.099Z,12.30
2018-03-21T23:05:28.786Z,11.53
2018-03-21T23:07:56.443Z,12.70
2018-03-21T23:10:24.101Z,13.97
2018-03-21T23:12:52.049Z,12.13
2018-03-21T23:15:19.708Z,12.90
2018-03-21T23:17:47.349Z,13.30
2018-03-21T23:20:15.018Z,12.80
2018-03-21T23:22:42.667Z,11.90
2018-03-21T23:25:10.256Z,12.27
2018-03-21T23:27:37.880Z,14.37
2018-03-21T23:30:05.512Z,14.27
2018-03-21T23:32:33.175Z,13.97
2018-03-21T23:35:00.888Z,13.60
2018-03-21T23:37:28.481Z,13.57
2018-03-21T23:39:56.241Z,13.37
2018-03-21T23:42:24.039Z,14.97
2018-03-21T23:44:51.736Z,13.10
2018-03-21T23:47:19.460Z,13.77
2018-03-21T23:49:47.412Z,15.40
2018-03-21T23:52:14.999Z,14.10
2018-03-21T23:54:42.614Z,14.50
2018-03-21T23:57:10.580Z,15.13
2018-03-21T23:59:38.288Z,15.87
